WetterOnline ( https://www.wetteronline.de )

Wetter aktuell Essen

Aktuelles Wetter: Essen (161m)

6-stündlich | Neueste Meldungen
Ortszeit Temperatur Wetter
Di, 16.07. 8:00 17.5° C leicht bewölkt
Di, 16.07. 2:00 18.5° C wolkig
Mo, 15.07. 20:00 24.6° C wolkig
Mo, 15.07. 14:00 24.4° C leicht bewölkt
Mo, 15.07. 8:00 17.3° C wolkenlos
Mo, 15.07. 2:00 14.8° C wolkenlos
So, 14.07. 20:00 20.2° C bedeckt
So, 14.07. 14:00 21.2° C leicht bewölkt
Ortszeit Temperatur Wetter
Di, 16.07. 8:00 17.5° C leicht bewölkt
Di, 16.07. 7:40 17.3° C leicht bewölkt
Di, 16.07. 7:30 17.3° C bewölkt
Di, 16.07. 7:20 17.3° C bewölkt
Di, 16.07. 7:10 17.4° C bewölkt
Di, 16.07. 7:00 17.7° C wolkig
Di, 16.07. 6:50 17.7° C wolkig
Di, 16.07. 6:30 17.9° C fast wolkenlos
Di, 16.07. 6:00 18.2° C wolkig
Di, 16.07. 5:30 17.9° C wolkenlos
Di, 16.07. 5:00 18.0° C wolkenlos
Ortszeit Relative Feuchte Sichtweite
Di, 16.07. 8:00 86% 50 km
Di, 16.07. 2:00 96% 18 km
Mo, 15.07. 20:00 46% 60 km
Mo, 15.07. 14:00 41% 55 km
Mo, 15.07. 8:00 70% 40 km
Mo, 15.07. 2:00 80% 55 km
So, 14.07. 20:00 56% 60 km
So, 14.07. 14:00 50% >70 km
Ortszeit Relative Feuchte Sichtweite
Di, 16.07. 8:00 86% 50 km
Di, 16.07. 7:40 87% -
Di, 16.07. 7:30 88% 35 km
Di, 16.07. 7:20 88% -
Di, 16.07. 7:10 88% -
Di, 16.07. 7:00 91% 40 km
Di, 16.07. 6:50 91% -
Di, 16.07. 6:30 92% 40 km
Di, 16.07. 6:00 93% 30 km
Di, 16.07. 5:30 94% 27 km
Di, 16.07. 5:00 93% 30 km
Ortszeit Niederschlagsmenge Niederschlagsart
Di, 16.07. 8:00 4 l/m2 in 12 Std. -
Di, 16.07. 2:00 4 l/m2 in 6 Std. Regen
Mo, 15.07. 20:00 0.0 l/m2 in 12 Std. -
Mo, 15.07. 14:00 0.0 l/m2 in 6 Std. -
Mo, 15.07. 8:00 0.0 l/m2 in 12 Std. -
Mo, 15.07. 2:00 0.0 l/m2 in 6 Std. -
So, 14.07. 20:00 0.0 l/m2 in 12 Std. -
So, 14.07. 14:00 0.0 l/m2 in 6 Std. -
Ortszeit Niederschlagsmenge Niederschlagsart
Di, 16.07. 8:00 0.0 l/m2 in 1 Std. -
Di, 16.07. 7:40 keine Meldung -
Di, 16.07. 7:30 0.0 l/m2 in 30 Min -
Di, 16.07. 7:20 keine Meldung -
Di, 16.07. 7:10 keine Meldung -
Di, 16.07. 7:00 0.0 l/m2 in 1 Std. -
Di, 16.07. 6:50 keine Meldung -
Di, 16.07. 6:30 0.0 l/m2 in 30 Min -
Di, 16.07. 6:00 <0.05 l/m2 in 1 Std. -
Di, 16.07. 5:30 <0.05 l/m2 in 30 Min -
Di, 16.07. 5:00 0.0 l/m2 in 1 Std. -
Ortszeit Stärke Spitze Richtung
km/h Bft. km/h Grad Sektor
Di, 16.07. 8:00 18 3 32 220° SW
Di, 16.07. 2:00 7 2 47 220° SW
Mo, 15.07. 20:00 7 2 25 90° O
Mo, 15.07. 14:00 11 2 25 160° S
Mo, 15.07. 8:00 6 1 13 180° S
Mo, 15.07. 2:00 2 1 11 200° S
So, 14.07. 20:00 7 2 32 240° SW
So, 14.07. 14:00 14 3 32 210° SW
Ortszeit Stärke Spitze Richtung
km/h Bft. km/h Grad Sektor
Di, 16.07. 8:00 18 3 32 220° SW
Di, 16.07. 7:40 19 3 - 220° SW
Di, 16.07. 7:30 17 3 33 220° SW
Di, 16.07. 7:20 17 3 - 220° SW
Di, 16.07. 7:10 18 3 - 220° SW
Di, 16.07. 7:00 17 3 33 210° SW
Di, 16.07. 6:50 17 3 - 210° SW
Di, 16.07. 6:30 17 3 33 220° SW
Di, 16.07. 6:00 17 3 30 220° SW
Di, 16.07. 5:30 11 2 18 210° SW
Di, 16.07. 5:00 7 2 18 200° S
Ortszeit Untergrenze Bedeckung Gattung
total tief tief mittel hoch
Di, 16.07. 8:00 420 m 3/8 3/8 - - -
Di, 16.07. 2:00 2400 m 7/8 1/8 - - -
Mo, 15.07. 20:00 2400 m 8/8 2/8 - - -
Mo, 15.07. 14:00 7800 m 7/8 0/8 - - -
Mo, 15.07. 8:00 - 0/8 0/8 - - -
Mo, 15.07. 2:00 - 0/8 0/8 - - -
So, 14.07. 20:00 4800 m 8/8 8/8 - - -
So, 14.07. 14:00 1410 m 2/8 1/8 - - -
Ortszeit Bedeckungsgrad in Achtel und Wolkenuntergrenze
Di, 16.07. 8:00 3(420m)
Di, 16.07. 7:40 4
Di, 16.07. 7:30 6(480m) 7(630m)
Di, 16.07. 7:20 6(480m) 7(630m)
Di, 16.07. 7:10 7
Di, 16.07. 7:00 4(450m) 5(570m)
Di, 16.07. 6:50 4(450m) 5(570m)
Di, 16.07. 6:30 1(1500m)
Di, 16.07. 6:00 3(420m) 4(1320m) 5(1500m)
Di, 16.07. 5:30 keine Wolken
Di, 16.07. 5:00 keine Wolken
Ortszeit Luftdruck NN (hPa) Tendenz (hPa in 3 Std.)
Di, 16.07. 8:00 1011 + 2,5
Di, 16.07. 2:00 1008 + 0,8
Mo, 15.07. 20:00 1008 - 1,2
Mo, 15.07. 14:00 1011 - 1,3
Mo, 15.07. 8:00 1013 - 0,1
Mo, 15.07. 2:00 1014 + 0,3
So, 14.07. 20:00 1013 - 0,1
So, 14.07. 14:00 1013 - 0,4
Ortszeit Luftdruck NN (hPa) Tendenz (hPa in 3 Std.)
Di, 16.07. 8:00 1011 + 2,5
Di, 16.07. 7:40 1011 keine Meldung
Di, 16.07. 7:30 1011 + 2,3
Di, 16.07. 7:20 1011 keine Meldung
Di, 16.07. 7:10 1010 keine Meldung
Di, 16.07. 7:00 1010 + 1,9
Di, 16.07. 6:50 1010 keine Meldung
Di, 16.07. 6:30 1009 + 1,3
Di, 16.07. 6:00 1009 + 1,0
Di, 16.07. 5:30 1009 + 0,3
Di, 16.07. 5:00 1008 0,0
Ortszeit Schneehöhe (cm)
Di, 16.07. 8:00 0
Di, 16.07. 2:00 0
Mo, 15.07. 20:00 0
Mo, 15.07. 14:00 0
Mo, 15.07. 8:00 0
Mo, 15.07. 2:00 0
So, 14.07. 20:00 0
So, 14.07. 14:00 0
Ortszeit Schneehöhe (cm)
Di, 16.07. 8:00 0
Di, 16.07. 7:40 -
Di, 16.07. 7:30 0
Di, 16.07. 7:20 0
Di, 16.07. 7:10 -
Di, 16.07. 7:00 0
Di, 16.07. 6:50 0
Di, 16.07. 6:30 0
Di, 16.07. 6:00 0
Di, 16.07. 5:30 0
Di, 16.07. 5:00 0
Link zu dieser Seite / Seite empfehlen

Das Wetter in ...